Hovedside
METAR-TAF:

METAR-TAF

Lufthavner :

Ørland, Norge

Ørland hovedflystasjon

breddegrad: 63-42N, lengdegrad: 009-36E, høyde over havet: 0 m

Gjeldene værobservasjon

Denne rapporten ble laget for 46 minutter siden, klokken 21:50 UTC
Vind 6 kt fra Øst
Temperatur 16°C
Luftfuktighet 72%
Trykk 1015 hPa
Sikt 10 km eller mer
ingen skyer under 1500 m og ingen bygeskyer

METAR: ENOL 242150Z 10006KT CAVOK 16/11 Q1015

Tid: 00:36 (22:36 UTC)

Varsel

Varsel gyldig fra 24. klokken 18 UTC til 25. klokken 18 UTC
Vind 8 kt fra Øst-sørøst
Sikt 10 km eller mer
ingen skyer under 1500 m og ingen bygeskyer

TAF: ENOL 2418/2518 12008KT CAVOK

Værobservasjoner og værvarsel for over 4000 flyplasser (METAR- og TAF-rapporter).

Tilgjengelige stasjoner er representert av de røde og gule prikkene på kartet.

Hold musepekeren over prikken for å se navnet på stasjonen.

Klikk så for å se værobservasjoner og -varsler.

For å forandre kartet kan du klikke på den grønne knappen med svart kryss for å zoome inn, på den grønne knappen med strek for å zoome ut, eller på de grønne pilene for å se tilstøtende kart.


METAR-TAF: